LIRZ

Perugia San Francesco d'Assisi – Umbria International Airport

Perugia, Italy
TAF LIRZ 261100Z 2612/2712 22008KT CAVOK
Issued Valid From Valid To
Apr-26 @ 11:00 UTC
(2 hours ago)
Apr-26 @ 12:00 UTC
(an hour ago)
Apr-27 @ 12:00 UTC
(in 23 hours)
Apr-26 @ 12:00 to Apr-27 @ 12:00
TAF LIRZ 261100Z 2612/2712 22008KT CAVOK
Wind Visibility Clouds Conditions
220° at 8 knots 10,000+ meters
  • No significant clouds
TAF LIRZ 261100Z 2612/2712 22008KT CAVOK
Issued Apr-26 @ 11:00 UTC
(2 hours ago)
Valid From Apr-26 @ 12:00 UTC
(an hour ago)
Valid To Apr-27 @ 12:00 UTC
(in 23 hours)
Apr-26 @ 12:00 - Apr-27 @ 12:00
Wind Visibility
220° at 8 knots 10,000+ meters
Clouds
  • No significant clouds
Conditions